^^
B2 Weather Station Historical Data
Daily Summary for June 4, 2019 Units:  English    Metric   Both
Daily Weekly Monthly Yearly Custom
  High: Low: Average:
Temperature: 82.8 °F 58.3 °F 70.9 °F
Dew Point: 68.4 °F 55.1 °F 61 °F
Humidity: 91% 45% 73%
Wind Speed: 18.4mph 0mph 5.8mph
Wind Gust: 10.7mph - -
Wind- - South
Pressure: 30.06 in 29.73 in -
Precipitation: 0.05 in    
Historical Graphs
 
 
Tabular Data for June 4, 2019
Time Temperature Dew Point Pressure Wind Wind Speed Wind Gust Humidity Rainfall Rate (Hourly) solar
00:04 58.3 °F 55.1 °F 30.05 in Calm     89% 0 in 0.00 W/m2
00:09 58.5 °F 55.3 °F 30.05 in Calm     89% 0 in 0.00 W/m2
00:14 58.6 °F 55.4 °F 30.05 in Calm     89% 0 in 0.00 W/m2
00:19 58.7 °F 55.5 °F 30.05 in Calm     89% 0 in 0.00 W/m2
00:24 58.9 °F 55.7 °F 30.05 in Calm     89% 0 in 0.00 W/m2
00:29 59 °F 55.8 °F 30.05 in Calm     89% 0 in 0.00 W/m2
00:34 59 °F 55.8 °F 30.05 in Calm     89% 0 in 0.00 W/m2
00:39 59.1 °F 55.9 °F 30.05 in Calm     89% 0 in 0.00 W/m2
00:44 59.3 °F 56.4 °F 30.05 in Calm     90% 0 in 0.00 W/m2
00:49 59.3 °F 56.1 °F 30.05 in Calm     89% 0 in 0.00 W/m2
00:54 59.4 °F 56.5 °F 30.05 in Calm     90% 0 in 0.00 W/m2
00:59 59.4 °F 56.2 °F 30.05 in Calm     89% 0 in 0.00 W/m2
01:04 59.4 °F 56.2 °F 30.05 in Calm     89% 0 in 0.00 W/m2
01:09 59.4 °F 56.2 °F 30.05 in Calm     89% 0 in 0.00 W/m2
01:14 59.5 °F 56.3 °F 30.05 in Calm     89% 0 in 0.00 W/m2
01:19 59.6 °F 56.4 °F 30.05 in Calm     89% 0 in 0.00 W/m2
01:24 59.7 °F 56.8 °F 30.05 in Calm     90% 0 in 0.00 W/m2
01:29 59.8 °F 56.9 °F 30.06 in Calm     90% 0 in 0.00 W/m2
01:34 60 °F 57.1 °F 30.05 in Calm   0.1 mph 90% 0 in 0.00 W/m2
01:39 60.1 °F 57.2 °F 30.05 in Calm     90% 0 in 0.00 W/m2
01:44 60.2 °F 56.9 °F 30.05 in Calm     89% 0 in 0.00 W/m2
01:49 60.4 °F 57.1 °F 30.04 in Calm     89% 0 in 0.00 W/m2
01:54 60.4 °F 57.1 °F 30.04 in Calm     89% 0 in 0.00 W/m2
01:59 60.5 °F 57.2 °F 30.04 in Calm     89% 0 in 0.00 W/m2
02:04 60.7 °F 57.7 °F 30.04 in Calm     90% 0 in 0.00 W/m2
02:09 60.8 °F 57.5 °F 30.04 in Calm     89% 0 in 0.00 W/m2
02:14 60.9 °F 57.6 °F 30.04 in Calm     89% 0 in 0.00 W/m2
02:19 61.1 °F 57.8 °F 30.04 in Calm     89% 0 in 0.00 W/m2
02:24 61.3 °F 57.7 °F 30.04 in Calm     88% 0 in 0.00 W/m2
02:29 61.4 °F 57.8 °F 30.03 in Calm     88% 0 in 0.00 W/m2
02:34 61.5 °F 57.9 °F 30.04 in Calm     88% 0 in 0.00 W/m2
02:39 61.5 °F 57.9 °F 30.04 in Calm     88% 0 in 0.00 W/m2
02:44 61.6 °F 58 °F 30.03 in Calm     88% 0 in 0.00 W/m2
02:49 61.6 °F 58.3 °F 30.03 in Calm     89% 0 in 0.00 W/m2
02:54 61.5 °F 58.2 °F 30.04 in Calm     89% 0 in 0.00 W/m2
02:59 61.6 °F 58.3 °F 30.04 in Calm     89% 0 in 0.00 W/m2
03:04 61.6 °F 58.6 °F 30.04 in Calm     90% 0 in 0.00 W/m2
03:09 61.5 °F 58.5 °F 30.04 in Calm     90% 0 in 0.00 W/m2
03:14 61.4 °F 58.4 °F 30.04 in Calm     90% 0 in 0.00 W/m2
03:19 61.3 °F 58.3 °F 30.04 in Calm     90% 0 in 0.00 W/m2
03:24 61.2 °F 58.2 °F 30.04 in Calm     90% 0 in 0.00 W/m2
03:29 61.2 °F 58.6 °F 30.04 in Calm     91% 0 in 0.00 W/m2
03:34 61.1 °F 58.5 °F 30.04 in Calm     91% 0 in 0.00 W/m2
03:39 61 °F 58.4 °F 30.04 in Calm     91% 0 in 0.00 W/m2
03:44 61.2 °F 58.6 °F 30.04 in SSE 1.2 mph   91% 0 in 0.00 W/m2
03:49 61.4 °F 58.4 °F 30.03 in Calm   0.3 mph 90% 0 in 0.00 W/m2
03:54 61.6 °F 58.6 °F 30.03 in South 3.5 mph 1.5 mph 90% 0 in 0.00 W/m2
03:59 61.7 °F 58.7 °F 30.03 in South 2.3 mph 0.5 mph 90% 0 in 0.00 W/m2
04:04 61.8 °F 58.5 °F 30.03 in South 3.5 mph 0.7 mph 89% 0 in 0.00 W/m2
04:09 61.9 °F 58.3 °F 30.03 in SSW 5.8 mph 2.8 mph 88% 0 in 0.00 W/m2
04:14 62.1 °F 58.2 °F 30.03 in SSW 3.5 mph 2.3 mph 87% 0 in 0.00 W/m2
04:19 62.3 °F 57.7 °F 30.03 in SSW 6.9 mph 0.9 mph 85% 0 in 0.00 W/m2
04:24 62.6 °F 58 °F 30.03 in SSW 2.3 mph 0.9 mph 85% 0 in 0.00 W/m2
04:29 62.6 °F 57.7 °F 30.03 in SW 3.5 mph 2.3 mph 84% 0 in 0.00 W/m2
04:34 62.6 °F 57.7 °F 30.03 in SW 3.5 mph 1.5 mph 84% 0 in 0.00 W/m2
04:39 62.6 °F 57.7 °F 30.03 in SSW 3.5 mph 1.3 mph 84% 0.01 in 0.00 W/m2
04:44 62.5 °F 57.9 °F 30.03 in SSW 3.5 mph 0.9 mph 85% 0.01 in 0.00 W/m2
04:49 62.3 °F 57.7 °F 30.02 in South 2 mph   85% 0.01 in 0.00 W/m2
04:54 62.1 °F 57.9 °F 30.02 in South 1.2 mph   86% 0.01 in 0.00 W/m2
04:59 62 °F 58.1 °F 30.02 in Calm     87% 0.01 in 0.00 W/m2
05:04 61.8 °F 58.2 °F 30.02 in South 3.5 mph 1.8 mph 88% 0.02 in 0.00 W/m2
05:09 61.6 °F 58.3 °F 30.02 in Calm     89% 0.02 in 0.00 W/m2
05:14 61.4 °F 58.1 °F 30.02 in Calm     89% 0.02 in 0.00 W/m2
05:19 61.3 °F 58.3 °F 30.02 in Calm     90% 0.02 in 0.00 W/m2
05:24 61.2 °F 58.2 °F 30.02 in Calm     90% 0.02 in 0.00 W/m2
05:29 61.1 °F 58.1 °F 30.02 in Calm     90% 0.02 in 5.00 W/m2
05:34 61.1 °F 58.1 °F 30.02 in South 3.5 mph   90% 0.02 in 9.00 W/m2
05:39 61.1 °F 58.5 °F 30.01 in Calm     91% 0.01 in 11.00 W/m2
05:44 61 °F 58.4 °F 30.01 in Calm     91% 0.01 in 9.00 W/m2
05:49 61 °F 58.4 °F 30.01 in South 2.3 mph   91% 0.01 in 11.00 W/m2
05:54 60.9 °F 58.3 °F 30.01 in South 1.2 mph 0.9 mph 91% 0.01 in 12.00 W/m2
05:59 60.9 °F 58.3 °F 30.01 in Calm   0.4 mph 91% 0.01 in 16.00 W/m2
06:04 61 °F 58.4 °F 30.01 in Calm     91% 0 in 23.00 W/m2
06:09 61.1 °F 58.5 °F 30.01 in Calm     91% 0 in 25.00 W/m2
06:14 61.2 °F 58.2 °F 30.02 in SE 2 mph 0.2 mph 90% 0 in 21.00 W/m2
06:19 61.4 °F 58.1 °F 30.02 in SSW 3.5 mph 0.1 mph 89% 0 in 25.00 W/m2
06:24 61.6 °F 58 °F 30.02 in Calm     88% 0 in 19.00 W/m2
06:29 61.7 °F 58.1 °F 30.02 in Calm     88% 0 in 21.00 W/m2
06:34 61.8 °F 58.2 °F 30.02 in Calm     88% 0 in 23.00 W/m2
06:39 61.9 °F 58 °F 30.02 in Calm     87% 0 in 16.00 W/m2
06:44 62 °F 58.1 °F 30.03 in Calm     87% 0 in 18.00 W/m2
06:49 62 °F 58.4 °F 30.03 in Calm     88% 0 in 25.00 W/m2
06:54 62.1 °F 58.5 °F 30.03 in Calm     88% 0 in 28.00 W/m2
06:59 62.1 °F 58.8 °F 30.02 in Calm     89% 0 in 30.00 W/m2
07:04 62.1 °F 58.8 °F 30.02 in South 3.5 mph 2.1 mph 89% 0 in 39.00 W/m2
07:09 62 °F 59 °F 30.02 in South 3 mph 1.5 mph 90% 0 in 51.00 W/m2
07:14 62 °F 59 °F 30.03 in South 5.8 mph 2.5 mph 90% 0 in 51.00 W/m2
07:19 62 °F 59 °F 30.03 in SSW 5.8 mph 3.5 mph 90% 0 in 40.00 W/m2
07:24 62 °F 58.7 °F 30.03 in South 6.9 mph 3 mph 89% 0 in 40.00 W/m2
07:29 62.1 °F 58.5 °F 30.03 in South 3.5 mph 2.3 mph 88% 0 in 35.00 W/m2
07:34 62.3 °F 58.4 °F 30.02 in South 4.6 mph 1.6 mph 87% 0 in 30.00 W/m2
07:39 62.4 °F 58.5 °F 30.01 in South 3.5 mph 1.4 mph 87% 0 in 30.00 W/m2
07:44 62.5 °F 58.6 °F 30.01 in South 6 mph 3.4 mph 87% 0 in 32.00 W/m2
07:49 62.4 °F 58.2 °F 30.00 in South 9.2 mph 3.5 mph 86% 0 in 33.00 W/m2
07:54 62.3 °F 58.1 °F 30.00 in South 8.1 mph 1.5 mph 86% 0.01 in 35.00 W/m2
07:59 62.2 °F 58 °F 30.00 in South 4.6 mph 3.2 mph 86% 0.01 in 39.00 W/m2
08:04 62.1 °F 58.2 °F 30.00 in South 5.8 mph 2.2 mph 87% 0.01 in 40.00 W/m2
08:09 62 °F 57.8 °F 30.00 in South 6.9 mph 2.1 mph 86% 0.01 in 40.00 W/m2
08:14 62.1 °F 57.9 °F 30.00 in South 8 mph 4.3 mph 86% 0.01 in 53.00 W/m2
08:19 62.3 °F 57.4 °F 30.00 in SSW 8.1 mph 4.4 mph 84% 0.01 in 69.00 W/m2
08:24 62.5 °F 57.3 °F 30.00 in South 9.2 mph 5.2 mph 83% 0.01 in 72.00 W/m2
08:29 62.7 °F 57.1 °F 30.01 in South 4.6 mph 0.6 mph 82% 0.01 in 56.00 W/m2
08:34 63 °F 57.1 °F 30.01 in South 6.9 mph 2.6 mph 81% 0.01 in 83.00 W/m2
08:39 63.2 °F 57.3 °F 30.01 in SSW 3.5 mph 0.6 mph 81% 0.01 in 102.00 W/m2
08:44 63.4 °F 57.1 °F 30.01 in SW 10 mph 3.3 mph 80% 0.01 in 104.00 W/m2
08:49 63.7 °F 57.1 °F 30.01 in South 5 mph 5.8 mph 79% 0.01 in 76.00 W/m2
08:54 64 °F 56.6 °F 30.02 in SW 9.2 mph 6 mph 77% 0 in 49.00 W/m2
08:59 64 °F 57 °F 30.02 in South 4.6 mph 2 mph 78% 0 in 58.00 W/m2
09:04 64 °F 57 °F 30.02 in SSW 5.8 mph 4.7 mph 78% 0 in 42.00 W/m2
09:09 63.9 °F 56.9 °F 30.02 in South 4 mph 2.4 mph 78% 0 in 26.00 W/m2
09:14 63.5 °F 56.9 °F 30.01 in South 5.8 mph 2.2 mph 79% 0 in 28.00 W/m2
09:19 63.2 °F 56.9 °F 30.01 in SSW 2.3 mph   80% 0.01 in 44.00 W/m2
09:24 63 °F 57.1 °F 30.01 in Calm   0.7 mph 81% 0.01 in 67.00 W/m2
09:29 62.9 °F 57.7 °F 30.01 in NNW 3 mph 1.6 mph 83% 0.01 in 62.00 W/m2
09:34 62.7 °F 57.8 °F 30.01 in Calm     84% 0.01 in 74.00 W/m2
09:39 62.7 °F 58.1 °F 30.01 in Calm     85% 0.01 in 123.00 W/m2
09:44 62.9 °F 58.3 °F 30.00 in SSE 2.3 mph 2.4 mph 85% 0.01 in 199.00 W/m2
09:49 63.3 °F 58.4 °F 30.00 in SSW 2.3 mph 0.2 mph 84% 0.01 in 269.00 W/m2
09:54 63.9 °F 58.6 °F 30.00 in SSW 3 mph 1.5 mph 83% 0.01 in 308.00 W/m2
09:59 64.6 °F 58.6 °F 30.00 in Calm     81% 0.01 in 236.00 W/m2
10:04 65.2 °F 59.9 °F 30.00 in SSW 1.2 mph   83% 0.01 in 294.00 W/m2
10:09 65.8 °F 59.5 °F 30.00 in SSW 3.5 mph 1.9 mph 80% 0.01 in 287.00 W/m2
10:14 66.1 °F 59.7 °F 30.00 in South 2.3 mph 0.5 mph 80% 0.01 in 288.00 W/m2
10:19 66.6 °F 60.6 °F 30.00 in SSE 4.6 mph 2.2 mph 81% 0 in 294.00 W/m2
10:24 67 °F 61 °F 30.00 in Calm     81% 0 in 315.00 W/m2
10:29 67.4 °F 62.1 °F 29.99 in Calm     83% 0 in 330.00 W/m2
10:34 67.9 °F 62.2 °F 29.99 in Calm     82% 0 in 346.00 W/m2
10:39 68.5 °F 62.8 °F 29.99 in SSE 5.8 mph 3.3 mph 82% 0 in 413.00 W/m2
10:44 69.1 °F 63.4 °F 29.99 in SE 3.5 mph 2.2 mph 82% 0 in 425.00 W/m2
10:49 69.5 °F 63.1 °F 29.99 in SSE 3.5 mph   80% 0 in 504.00 W/m2
10:54 70.1 °F 63.6 °F 29.98 in SSE 3 mph 2.1 mph 80% 0 in 436.00 W/m2
10:59 70.6 °F 64.1 °F 29.98 in SSE 3.5 mph 2.8 mph 80% 0 in 338.00 W/m2
11:04 70.7 °F 62.4 °F 29.98 in South 3.5 mph   75% 0 in 415.00 W/m2
11:09 71.3 °F 63.7 °F 29.98 in SSE 5 mph 0.1 mph 77% 0 in 424.00 W/m2
11:14 71.7 °F 62.6 °F 29.98 in SSE 9.2 mph 3 mph 73% 0 in 355.00 W/m2
11:19 72.1 °F 60.5 °F 29.98 in SSW 10.4 mph 3.3 mph 67% 0 in 487.00 W/m2
11:24 72.9 °F 60.9 °F 29.97 in SSW 4.6 mph 1.2 mph 66% 0 in 506.00 W/m2
11:29 73.6 °F 59.8 °F 29.97 in SSW 8.1 mph 1.8 mph 62% 0 in 550.00 W/m2
11:34 73.9 °F 60.5 °F 29.96 in South 3.5 mph 0.9 mph 63% 0.01 in 538.00 W/m2
11:39 74.2 °F 60.3 °F 29.96 in SSE 6.9 mph 2.3 mph 62% 0.01 in 619.00 W/m2
11:44 74.9 °F 60.5 °F 29.96 in SSE 11 mph 3.6 mph 61% 0.01 in 904.00 W/m2
11:49 75.5 °F 59.2 °F 29.96 in South 9.2 mph 3.8 mph 57% 0.01 in 976.00 W/m2
11:54 76.1 °F 59.3 °F 29.95 in South 11.5 mph 6.1 mph 56% 0.01 in 1055.00 W/m2
11:59 76.3 °F 57.4 °F 29.95 in SSW 11.5 mph 8.2 mph 52% 0.01 in 930.00 W/m2
12:04 76.2 °F 57.8 °F 29.95 in SW 16.1 mph 5.9 mph 53% 0.01 in 700.00 W/m2
12:09 76.6 °F 58.2 °F 29.95 in South 11.5 mph 4.9 mph 53% 0.01 in 728.00 W/m2
12:14 76.9 °F 59 °F 29.95 in SSW 8.1 mph 3.5 mph 54% 0.01 in 635.00 W/m2
12:19 77.1 °F 58.6 °F 29.95 in SSW 12.7 mph 4.9 mph 53% 0.01 in 621.00 W/m2
12:24 77.5 °F 59.5 °F 29.94 in SSW 4.6 mph 2.6 mph 54% 0.01 in 979.00 W/m2
12:29 77.8 °F 58.8 °F 29.94 in SSW 10.4 mph 7.3 mph 52% 0.01 in 654.00 W/m2
12:34 77.4 °F 57.3 °F 29.93 in South 11.5 mph 5.2 mph 50% 0 in 564.00 W/m2
12:39 77.4 °F 56.7 °F 29.93 in SSW 13.8 mph 4.7 mph 49% 0 in 527.00 W/m2
12:44 77.7 °F 57.6 °F 29.93 in South 10.4 mph 6.6 mph 50% 0 in 745.00 W/m2
12:49 78 °F 56.7 °F 29.93 in South 15 mph 10.4 mph 48% 0 in 773.00 W/m2
12:54 78.2 °F 57.5 °F 29.93 in SSW 10.4 mph 6.2 mph 49% 0 in 740.00 W/m2
12:59 78.5 °F 57.7 °F 29.93 in SSW 11.5 mph 7.9 mph 49% 0 in 744.00 W/m2
13:04 78.9 °F 59.2 °F 29.92 in SSW 8 mph 5.7 mph 51% 0 in 650.00 W/m2
13:09 79 °F 58.2 °F 29.92 in SSW 13.8 mph 7.9 mph 49% 0 in 712.00 W/m2
13:14 78.9 °F 57.5 °F 29.92 in South 16.1 mph 6 mph 48% 0 in 793.00 W/m2
13:20 79 °F 58.2 °F 29.91 in South 11.5 mph 7.6 mph 49% 0 in 777.00 W/m2
13:24 79.3 °F 57.9 °F 29.91 in SSW 11.5 mph 7.3 mph 48% 0 in 789.00 W/m2
13:29 79.3 °F 56.1 °F 29.91 in South 16.1 mph 5.2 mph 45% 0 in 717.00 W/m2
13:34 79.6 °F 57.6 °F 29.91 in SSW 11.5 mph 4.2 mph 47% 0 in 656.00 W/m2
13:39 80.2 °F 59.9 °F 29.90 in SSW 8.1 mph 3.1 mph 50% 0 in 680.00 W/m2
13:44 80.3 °F 58.2 °F 29.90 in South 11.5 mph 4.4 mph 47% 0 in 436.00 W/m2
13:49 80.1 °F 58 °F 29.90 in South 13.8 mph 7.1 mph 47% 0 in 830.00 W/m2
13:54 80.6 °F 59.1 °F 29.90 in South 11.5 mph 5.9 mph 48% 0 in 782.00 W/m2
13:59 81.1 °F 59 °F 29.89 in SW 15 mph 8.4 mph 47% 0 in 814.00 W/m2
14:04 81.2 °F 60.2 °F 29.89 in South 10.4 mph 5 mph 49% 0 in 708.00 W/m2
14:09 81 °F 59.5 °F 29.89 in South 10.4 mph 4.4 mph 48% 0 in 427.00 W/m2
14:14 80.7 °F 59.2 °F 29.89 in SSE 8 mph 6.9 mph 48% 0 in 383.00 W/m2
14:19 80.3 °F 59.4 °F 29.89 in SSW 9.2 mph 7.1 mph 49% 0 in 318.00 W/m2
14:24 80 °F 58 °F 29.88 in SW 12.7 mph 6.5 mph 47% 0 in 355.00 W/m2
14:29 80.1 °F 59.2 °F 29.88 in South 7 mph 7.5 mph 49% 0 in 367.00 W/m2
14:34 79.8 °F 59.5 °F 29.88 in SW 8 mph 3.8 mph 50% 0 in 403.00 W/m2
14:39 80 °F 58.5 °F 29.87 in South 11.5 mph 5.5 mph 48% 0 in 577.00 W/m2
14:44 80.1 °F 59.2 °F 29.87 in South 11 mph 7.1 mph 49% 0 in 345.00 W/m2
14:49 80.1 °F 59.2 °F 29.87 in SSW 12.7 mph 6.6 mph 49% 0 in 229.00 W/m2
14:54 79.8 °F 59.5 °F 29.87 in South 10.4 mph 4.9 mph 50% 0 in 199.00 W/m2
14:59 79.6 °F 59.3 °F 29.87 in SW 9 mph 6 mph 50% 0 in 229.00 W/m2
15:04 79.6 °F 59.9 °F 29.86 in SSW 11.5 mph 5.1 mph 51% 0 in 529.00 W/m2
15:09 80.2 °F 60.4 °F 29.86 in SSW 9.2 mph 7.3 mph 51% 0 in 527.00 W/m2
15:14 80.5 °F 60.7 °F 29.86 in SW 9.2 mph 4.9 mph 51% 0 in 348.00 W/m2
15:19 80.4 °F 60.6 °F 29.86 in South 11.5 mph 6.4 mph 51% 0 in 343.00 W/m2
15:24 80.3 °F 60.5 °F 29.85 in SSW 9.2 mph 6.8 mph 51% 0 in 452.00 W/m2
15:29 80.4 °F 61.7 °F 29.85 in SW 6.9 mph 4.5 mph 53% 0 in 432.00 W/m2
15:34 80.5 °F 61.3 °F 29.84 in SSW 16.1 mph 5.3 mph 52% 0 in 503.00 W/m2
15:39 80.7 °F 62 °F 29.84 in SSE 7 mph 4.5 mph 53% 0 in 480.00 W/m2
15:44 81.1 °F 61.8 °F 29.84 in South 10.4 mph 7 mph 52% 0 in 418.00 W/m2
15:49 81.3 °F 60.3 °F 29.84 in South 16.1 mph 10.2 mph 49% 0 in 336.00 W/m2
15:54 81.3 °F 62 °F 29.83 in South 9.2 mph 5.1 mph 52% 0 in 594.00 W/m2
15:59 81.8 °F 61.9 °F 29.84 in SSW 11.5 mph 8.3 mph 51% 0 in 582.00 W/m2
16:04 81.9 °F 61.4 °F 29.83 in South 11.5 mph 9.4 mph 50% 0 in 418.00 W/m2
16:09 81.7 °F 61.8 °F 29.84 in ESE 13 mph 10.6 mph 51% 0 in 274.00 W/m2
16:14 81.3 °F 62.5 °F 29.83 in South 9.2 mph 3.8 mph 53% 0 in 257.00 W/m2
16:19 81.1 °F 61.8 °F 29.83 in SSW 10.4 mph 7.6 mph 52% 0 in 265.00 W/m2
16:24 80.9 °F 62.2 °F 29.82 in South 18.4 mph 6.8 mph 53% 0 in 255.00 W/m2
16:29 81 °F 63.3 °F 29.82 in SSW 9.2 mph 4.9 mph 55% 0 in 554.00 W/m2
16:34 81.6 °F 63.3 °F 29.82 in South 15 mph 5.3 mph 54% 0 in 410.00 W/m2
16:39 81.6 °F 63.3 °F 29.82 in SSW 9.2 mph 5.9 mph 54% 0 in 390.00 W/m2
16:44 81.8 °F 64.1 °F 29.82 in SSW 8.1 mph 5 mph 55% 0 in 543.00 W/m2
16:49 82.1 °F 64.3 °F 29.81 in SSE 13.8 mph 4.8 mph 55% 0 in 536.00 W/m2
16:54 82.2 °F 64.4 °F 29.81 in SW 9.2 mph 5.6 mph 55% 0 in 357.00 W/m2
16:59 82.1 °F 64.8 °F 29.81 in SSW 8.1 mph 4.2 mph 56% 0 in 374.00 W/m2
17:04 82.1 °F 64.8 °F 29.81 in South 5 mph 3.8 mph 56% 0 in 218.00 W/m2
17:09 82 °F 65.3 °F 29.80 in SW 11.5 mph 7.5 mph 57% 0 in 350.00 W/m2
17:14 82.1 °F 65.9 °F 29.80 in South 8.1 mph 5.3 mph 58% 0 in 415.00 W/m2
17:19 82.3 °F 66 °F 29.79 in SSW 6.9 mph 5.5 mph 58% 0 in 367.00 W/m2
17:24 82.6 °F 66.3 °F 29.79 in South 11.5 mph 5.6 mph 58% 0 in 267.00 W/m2
17:29 82.3 °F 66 °F 29.79 in South 11.5 mph 3.6 mph 58% 0 in 202.00 W/m2
17:34 82 °F 66.7 °F 29.79 in South 7 mph 4.9 mph 60% 0 in 334.00 W/m2
17:39 82 °F 66.7 °F 29.78 in SSW 18.4 mph 6.9 mph 60% 0 in 471.00 W/m2
17:44 82.3 °F 67 °F 29.78 in SW 9.2 mph 7.8 mph 60% 0 in 439.00 W/m2
17:49 82.7 °F 67.4 °F 29.78 in South 11 mph 8.5 mph 60% 0 in 285.00 W/m2
17:54 82.7 °F 67.9 °F 29.78 in South 12.7 mph 5.3 mph 61% 0 in 388.00 W/m2
17:59 82.8 °F 68 °F 29.77 in South 10.4 mph 4.2 mph 61% 0 in 315.00 W/m2
18:04 82.6 °F 67.8 °F 29.77 in SSE 10.4 mph 8.5 mph 61% 0 in 330.00 W/m2
18:09 82 °F 67.2 °F 29.77 in SSW 12.7 mph 6.6 mph 61% 0 in 255.00 W/m2
18:14 81.6 °F 66.8 °F 29.77 in South 16 mph 10.7 mph 61% 0 in 183.00 W/m2
18:19 81.6 °F 67.3 °F 29.77 in SW 15 mph 10.2 mph 62% 0 in 283.00 W/m2
18:24 81.6 °F 66.8 °F 29.77 in SW 11.5 mph 6 mph 61% 0 in 264.00 W/m2
18:29 81.4 °F 66.7 °F 29.76 in SSW 10 mph 6.7 mph 61% 0 in 125.00 W/m2
18:34 81.2 °F 66.9 °F 29.76 in SSW 7 mph 3.6 mph 62% 0 in 123.00 W/m2
18:39 81 °F 66.8 °F 29.76 in SSE 11.5 mph 6.7 mph 62% 0 in 144.00 W/m2
18:44 80.9 °F 66.7 °F 29.76 in SSW 8.1 mph 6.4 mph 62% 0 in 179.00 W/m2
18:49 80.9 °F 67.1 °F 29.76 in South 11.5 mph 7.2 mph 63% 0 in 206.00 W/m2
18:54 81 °F 67.2 °F 29.76 in South 8.1 mph 5.5 mph 63% 0 in 88.00 W/m2
18:59 80.7 °F 66.9 °F 29.76 in SW 12.7 mph 6.3 mph 63% 0 in 76.00 W/m2
19:04 80.5 °F 66.7 °F 29.76 in SSW 8.1 mph 4.8 mph 63% 0 in 109.00 W/m2
19:09 80.5 °F 67.2 °F 29.75 in SSW 11.5 mph 3.3 mph 64% 0 in 142.00 W/m2
19:14 80.3 °F 67 °F 29.75 in South 7 mph 3.4 mph 64% 0 in 102.00 W/m2
19:19 80.1 °F 66.8 °F 29.75 in SSW 10.4 mph 4.8 mph 64% 0 in 81.00 W/m2
19:24 79.9 °F 67.1 °F 29.75 in SSW 6.9 mph 2.8 mph 65% 0 in 49.00 W/m2
19:29 79.6 °F 66.3 °F 29.75 in South 6.9 mph 5.7 mph 64% 0 in 49.00 W/m2
19:34 79.5 °F 66.3 °F 29.75 in South 9.2 mph 4.4 mph 64% 0 in 49.00 W/m2
19:39 79.4 °F 66.2 °F 29.75 in South 6.9 mph 5.6 mph 64% 0 in 33.00 W/m2
19:44 79.2 °F 66 °F 29.74 in South 9.2 mph 6.4 mph 64% 0 in 26.00 W/m2
19:49 79.1 °F 65.9 °F 29.74 in SSW 6.9 mph 3 mph 64% 0 in 23.00 W/m2
19:54 78.9 °F 65.7 °F 29.74 in South 5.8 mph 4.2 mph 64% 0 in 19.00 W/m2
19:59 78.7 °F 65.9 °F 29.74 in South 6.9 mph 3.4 mph 65% 0 in 16.00 W/m2
20:04 78.5 °F 65.8 °F 29.75 in SSW 5.8 mph 4 mph 65% 0 in 12.00 W/m2
20:09 78.3 °F 65.6 °F 29.75 in SSW 10.4 mph 2.8 mph 65% 0 in 9.00 W/m2
20:14 78.1 °F 65.4 °F 29.75 in South 8.1 mph 3.1 mph 65% 0 in 5.00 W/m2
20:19 77.9 °F 65.6 °F 29.75 in South 4.6 mph 3.4 mph 66% 0 in 0.00 W/m2
20:24 77.6 °F 65.3 °F 29.75 in SSW 5.8 mph 2.4 mph 66% 0 in 0.00 W/m2
20:29 77.4 °F 65.6 °F 29.75 in SSW 4 mph 2.7 mph 67% 0 in 0.00 W/m2
20:34 77.1 °F 65.3 °F 29.75 in SSW 3.5 mph 2.9 mph 67% 0 in 0.00 W/m2
20:39 76.8 °F 65.4 °F 29.76 in SSW 3.5 mph 0.7 mph 68% 0 in 0.00 W/m2
20:44 76.5 °F 65.6 °F 29.76 in SSW 3.5 mph 0.6 mph 69% 0 in 0.00 W/m2
20:49 76.3 °F 65.8 °F 29.76 in South 3.5 mph 0.8 mph 70% 0 in 0.00 W/m2
20:54 76.2 °F 65.7 °F 29.76 in SSW 3.5 mph 1 mph 70% 0 in 0.00 W/m2
20:59 76.1 °F 66 °F 29.77 in SSW 3.5 mph 1.5 mph 71% 0 in 0.00 W/m2
21:04 76.1 °F 65.6 °F 29.77 in South 5.8 mph 1.9 mph 70% 0 in 0.00 W/m2
21:09 76.1 °F 66 °F 29.77 in South 3.5 mph 1.4 mph 71% 0 in 0.00 W/m2
21:14 76.1 °F 66 °F 29.77 in SSW 3.5 mph 1.4 mph 71% 0 in 0.00 W/m2
21:19 76 °F 65.9 °F 29.77 in South 4.6 mph 2.9 mph 71% 0 in 0.00 W/m2
21:24 76 °F 65.9 °F 29.77 in South 6.9 mph 2.7 mph 71% 0 in 0.00 W/m2
21:29 75.7 °F 65.6 °F 29.78 in South 5.8 mph 2.3 mph 71% 0 in 0.00 W/m2
21:34 75.6 °F 65.5 °F 29.78 in SSW 4.6 mph 1.8 mph 71% 0 in 0.00 W/m2
21:39 75.4 °F 65.7 °F 29.78 in South 6.9 mph 2.3 mph 72% 0 in 0.00 W/m2
21:45 75.3 °F 65.6 °F 29.78 in South 6.9 mph 4.4 mph 72% 0 in 0.00 W/m2
21:49 75.2 °F 65.9 °F 29.77 in South 4.6 mph 4.4 mph 73% 0 in 0.00 W/m2
21:54 75.2 °F 65.9 °F 29.77 in SSW 5.8 mph 2.8 mph 73% 0 in 0.00 W/m2
21:59 75.3 °F 66 °F 29.77 in SSW 3.5 mph 2.6 mph 73% 0 in 0.00 W/m2
22:04 75.2 °F 66.3 °F 29.77 in South 2.3 mph 1.9 mph 74% 0 in 0.00 W/m2
22:09 74.9 °F 66.1 °F 29.77 in South 5.8 mph 1.8 mph 74% 0 in 0.00 W/m2
22:14 74.7 °F 66.2 °F 29.77 in SW 4.6 mph 0.9 mph 75% 0 in 0.00 W/m2
22:19 74.5 °F 66.4 °F 29.77 in SSW 6 mph 2.3 mph 76% 0 in 0.00 W/m2
22:24 74.5 °F 66.4 °F 29.77 in SSW 5.8 mph 3.2 mph 76% 0 in 0.00 W/m2
22:30 74.5 °F 66.8 °F 29.76 in South 9.2 mph 4.5 mph 77% 0 in 0.00 W/m2
22:34 74.5 °F 66.8 °F 29.76 in SSW 5.8 mph 4 mph 77% 0 in 0.00 W/m2
22:39 74.6 °F 66.9 °F 29.76 in SSW 8.1 mph 3 mph 77% 0 in 0.00 W/m2
22:44 74.8 °F 67.1 °F 29.75 in SSE 11.5 mph 5 mph 77% 0 in 0.00 W/m2
22:49 75 °F 67.3 °F 29.75 in South 10.4 mph 3.1 mph 77% 0 in 0.00 W/m2
22:54 75 °F 67.3 °F 29.75 in SSW 8.1 mph 4.2 mph 77% 0 in 0.00 W/m2
22:59 74.9 °F 67.6 °F 29.74 in SSW 6.9 mph 3.2 mph 78% 0 in 0.00 W/m2
23:04 75 °F 67.7 °F 29.74 in SSW 10.4 mph 3.4 mph 78% 0 in 0.00 W/m2
23:09 75.1 °F 67.8 °F 29.74 in SSE 5.8 mph 3.6 mph 78% 0 in 0.00 W/m2
23:14 75 °F 67.7 °F 29.73 in South 4.6 mph 3.3 mph 78% 0 in 0.00 W/m2
23:19 74.9 °F 67.9 °F 29.73 in South 4.6 mph 3.3 mph 79% 0 in 0.00 W/m2
23:24 74.7 °F 67.8 °F 29.73 in South 3.5 mph 3.6 mph 79% 0 in 0.00 W/m2
23:29 74.6 °F 68 °F 29.73 in SSW 8.1 mph 1.3 mph 80% 0 in 0.00 W/m2
23:34 74.6 °F 68 °F 29.74 in SSW 4.6 mph 2.1 mph 80% 0 in 0.00 W/m2
23:40 74.7 °F 68.1 °F 29.74 in South 5 mph 3.5 mph 80% 0 in 0.00 W/m2
23:44 74.8 °F 68.2 °F 29.74 in South 9.2 mph 5.1 mph 80% 0 in 0.00 W/m2
23:49 75 °F 68.4 °F 29.74 in SW 12.7 mph 5.8 mph 80% 0 in 0.00 W/m2
23:54 75.1 °F 68.1 °F 29.75 in SSW 7 mph 5 mph 79% 0 in 0.00 W/m2
23:59 75.1 °F 68.1 °F 29.75 in SSW 9.2 mph 4.9 mph 79% 0 in 0.00 W/m2
Bourbonnais, Illinois, USA
Compliments of Weather Underground - 4 mb